This is the latest recevied weather packets stored in our database for station/object EFIV. If no packets are shown the sender has not sent any weather packets the latest 1 day(s).
| Time | Temp. | Humidity | Pressure | Rain* | Wind** | Luminosity | Snow |
|---|---|---|---|---|---|---|---|
| 1778435266 | 11.67° C | 28% | 1009.7 hPa | - | - | - | - |
| 1778429267 | 12.22° C | 26% | 1009.6 hPa | - | - | - | - |
| 1778425868 | 12.78° C | 31% | 1009.8 hPa | - | - | - | - |
| 1778420865 | 13.33° C | 31% | 1009.9 hPa | - | - | - | - |
| 1778419665 | 12.78° C | 32% | 1009.9 hPa | - | - | - | - |
| 1778414865 | 12.22° C | 34% | 1010.3 hPa | - | - | - | - |
| 1778407666 | 11.67° C | 38% | 1011.1 hPa | - | - | - | - |
| 1778404064 | 10° C | 40% | 1011.7 hPa | - | - | - | - |
| 1778402864 | 10° C | 43% | 1012 hPa | - | - | - | - |
| 1778396863 | 8.33° C | 44% | 1012.9 hPa | - | - | - | - |
| 1778395665 | 8.33° C | 45% | 1013.1 hPa | - | - | - | - |
| 1778393263 | 7.78° C | 49% | 1013.4 hPa | - | - | - | - |
| 1778392063 | 7.78° C | 50% | 1013.6 hPa | - | - | - | - |
| 1778390864 | 7.78° C | 51% | 1013.5 hPa | - | - | - | - |
| 1778389663 | 7.22° C | 51% | 1013.6 hPa | - | - | - | - |
| 1778388463 | 7.22° C | 51% | 1013.9 hPa | - | - | - | - |
| 1778387263 | 6.67° C | 52% | 1014 hPa | - | - | - | - |
| 1778386064 | 6.67° C | 55% | 1014.3 hPa | - | - | - | - |
| 1778384864 | 6.11° C | 59% | 1014.4 hPa | - | - | - | - |
| 1778382462 | 5° C | 79% | 1014.6 hPa | - | - | - | - |
| 1778380063 | 3.33° C | 93% | 1015.1 hPa | - | - | - | - |
| 1778377663 | 3.89° C | 93% | 1015.2 hPa | - | - | - | - |
| 1778376463 | 4.44° C | 81% | 1015.4 hPa | - | - | - | - |
| 1778371664 | 5° C | 76% | 1015.9 hPa | - | - | - | - |
| 1778368064 | 5.56° C | 79% | 1016.7 hPa | - | - | - | - |
* Rain since midnight (hover to see other rain measurements)
** Current wind speed in m/s (hover to see current wind gust speed)